Polzeath, United Kingdom
Current Conditions -  °F | °C
As of 2:50 PM on Monday 24 Nov 2014 (Local Time) from EGHQ Reporting Station
Clear Clear  
Wind Chill: 44°   Ceiling: Unl
Heat Index: 46°   Visibility: 6mi
Dew Point: 34°   Wind: 5mph
Humidity: 62%   Direction: 80°E
Pressure: 30.3"   Gusts: NA
Location:  50.57°N, 4.92°W
Report Text: EGHQ 241450Z 08004KT CAVOK 08/01 Q1026
Loading
Personal Weather Stations






























Interactive Weather Map New forecast layout! Learn more

10-Day Weather Forecast

Advertisements
Track Severe Weather on mobile